Campsall, United Kingdom
Current Conditions -  °F | °C
As of 11:50 AM on Thursday 30 Oct 2014 (Local Time) from EGCN Reporting Station
Overcast Overcast  
Wind Chill: 61°   Ceiling: 1200
Heat Index: 61°   Visibility: 4mi
Dew Point: 59°   Wind: 7mph
Humidity: 94%   Direction: 150°SSE
Pressure: 30.03"   Gusts: NA
Location:  53.62°N, 1.18°W
Report Text: EGCN 301150Z 15006KT 7000 OVC012 16/15 Q1017
Loading
Personal Weather Stations






























Interactive Weather Map
Tropical Storm Tracking
New forecast layout! Learn more

10-Day Weather Forecast

Advertisements
Track Severe Weather on mobile